createdAt,value
2022-08-05T00:01:35.495Z,101254.44
2022-08-05T00:04:03.351Z,101259.25
2022-08-05T00:06:33.193Z,101258.38
2022-08-05T00:09:00.981Z,101261.41
2022-08-05T00:11:34.846Z,101269.63
2022-08-05T00:14:02.431Z,101276.56
2022-08-05T00:16:52.743Z,101278.38
2022-08-05T00:19:21.462Z,101271.63
2022-08-05T00:21:49.093Z,101273.69
2022-08-05T00:24:16.132Z,101276.16
2022-08-05T00:26:51.987Z,101281.69
2022-08-05T00:29:22.680Z,101283.25
2022-08-05T00:31:53.885Z,101282.84
2022-08-05T00:34:55.320Z,101287.94
2022-08-05T00:37:24.868Z,101288.81
2022-08-05T00:39:57.884Z,101286.97
2022-08-05T00:42:36.840Z,101283.19
2022-08-05T00:45:05.074Z,101284.09
2022-08-05T00:47:56.553Z,101284.78
2022-08-05T00:50:22.303Z,101289.03
2022-08-05T00:52:52.127Z,101286.03
2022-08-05T00:55:20.016Z,101291.88
2022-08-05T00:57:55.319Z,101285.41
2022-08-05T01:00:25.929Z,101283.69
2022-08-05T01:02:53.058Z,101285.53
2022-08-05T01:05:19.730Z,101283.41
2022-08-05T01:08:40.028Z,101287.09
2022-08-05T01:10:38.275Z,101285.88
2022-08-05T01:13:13.318Z,101277.38
2022-08-05T01:15:48.781Z,101277.81
2022-08-05T01:18:20.027Z,101281.41
2022-08-05T01:21:06.810Z,101278.69
2022-08-05T01:23:39.504Z,101276.06
2022-08-05T01:26:26.994Z,101274.31
2022-08-05T01:29:06.733Z,101271.94
2022-08-05T01:31:42.715Z,101276.31
2022-08-05T01:34:20.734Z,101274.53
2022-08-05T01:36:49.370Z,101276.31
2022-08-05T01:39:46.211Z,101275.69
2022-08-05T01:42:03.350Z,101278.94
2022-08-05T01:44:34.198Z,101277.06
2022-08-05T01:47:02.538Z,101275.69
2022-08-05T01:50:01.335Z,101284.38
2022-08-05T01:52:21.231Z,101279.78
2022-08-05T01:55:09.211Z,101274.03
2022-08-05T01:58:18.777Z,101275.34
2022-08-05T02:00:30.730Z,101277.34
2022-08-05T02:03:04.389Z,101277.84
2022-08-05T02:05:34.150Z,101270.31
2022-08-05T02:08:02.914Z,101270.06
2022-08-05T02:10:33.108Z,101275.09
2022-08-05T02:13:16.100Z,101274.38
2022-08-05T02:16:06.579Z,101277.19
2022-08-05T02:18:42.867Z,101276.88
2022-08-05T02:21:15.327Z,101270.50
2022-08-05T02:23:43.704Z,101263.34
2022-08-05T02:26:13.904Z,101273.25
2022-08-05T02:28:45.962Z,101256.75
2022-08-05T02:31:16.567Z,101256.75
2022-08-05T02:33:50.023Z,101257.47
2022-08-05T02:36:27.424Z,101255.91
2022-08-05T02:38:56.306Z,101257.09
2022-08-05T02:41:28.753Z,101262.25
2022-08-05T02:44:13.307Z,101260.72
2022-08-05T02:46:58.827Z,101257.78
2022-08-05T02:49:37.143Z,101259.78
2022-08-05T02:52:29.666Z,101258.03
2022-08-05T02:54:58.027Z,101255.28
2022-08-05T02:58:09.883Z,101255.03
2022-08-05T03:00:16.744Z,101257.47
2022-08-05T03:02:45.391Z,101257.78
2022-08-05T03:05:12.438Z,101256.53
2022-08-05T03:08:07.045Z,101257.28
2022-08-05T03:10:29.279Z,101257.03
2022-08-05T03:15:24.165Z,101260.25
2022-08-05T03:17:55.917Z,101256.06
2022-08-05T03:20:24.499Z,101255.59
2022-08-05T03:22:51.987Z,101251.97
2022-08-05T03:25:32.932Z,101253.84
2022-08-05T03:28:10.743Z,101259.78
2022-08-05T03:30:44.337Z,101255.31
2022-08-05T03:33:13.982Z,101259.44
2022-08-05T03:35:41.993Z,101256.94
2022-08-05T03:38:11.265Z,101250.00
2022-08-05T03:40:45.400Z,101243.97
2022-08-05T03:44:08.881Z,101255.53
2022-08-05T03:46:03.070Z,101248.66
2022-08-05T03:48:30.053Z,101249.53
2022-08-05T03:52:38.779Z,101254.59
2022-08-05T03:55:07.228Z,101264.31
2022-08-05T03:56:58.838Z,101255.59
2022-08-05T03:59:47.703Z,101259.63
2022-08-05T04:02:38.825Z,101256.03
2022-08-05T04:05:10.325Z,101258.38
2022-08-05T04:07:57.615Z,101264.91
2022-08-05T04:10:27.519Z,101266.81
2022-08-05T04:12:58.830Z,101266.63
2022-08-05T04:15:26.321Z,101266.09
2022-08-05T04:17:57.145Z,101265.88
2022-08-05T04:20:26.863Z,101268.00
2022-08-05T04:22:53.502Z,101271.25
2022-08-05T04:25:20.186Z,101276.22
2022-08-05T04:28:11.361Z,101270.81
2022-08-05T04:30:39.296Z,101277.53
2022-08-05T04:33:06.304Z,101285.66
2022-08-05T04:36:15.701Z,101285.63
2022-08-05T04:38:20.886Z,101285.53
2022-08-05T04:40:50.770Z,101291.31
2022-08-05T04:43:17.665Z,101292.09
2022-08-05T04:45:55.033Z,101290.38
2022-08-05T04:48:28.145Z,101287.13
2022-08-05T04:51:02.863Z,101291.31
2022-08-05T04:53:38.878Z,101297.47
2022-08-05T04:56:33.382Z,101291.66
2022-08-05T04:58:53.440Z,101293.16
2022-08-05T05:02:05.970Z,101300.25
2022-08-05T05:04:06.806Z,101296.63
2022-08-05T05:06:35.979Z,101304.09
2022-08-05T05:09:14.260Z,101309.06
2022-08-05T05:11:53.094Z,101304.06
2022-08-05T05:14:27.810Z,101312.84
2022-08-05T05:16:59.521Z,101313.41
2022-08-05T05:19:27.494Z,101318.88
2022-08-05T05:22:22.782Z,101316.50
2022-08-05T05:24:57.429Z,101310.94
2022-08-05T05:27:41.244Z,101315.31
2022-08-05T05:30:08.744Z,101321.25
2022-08-05T05:32:55.561Z,101322.03
2022-08-05T05:35:23.130Z,101317.13
2022-08-05T05:38:00.068Z,101319.31
2022-08-05T05:40:29.518Z,101323.63
2022-08-05T05:42:56.784Z,101323.94
2022-08-05T05:45:24.691Z,101323.28
2022-08-05T05:48:05.360Z,101331.91
2022-08-05T05:50:43.878Z,101325.31
2022-08-05T05:53:22.300Z,101329.41
2022-08-05T05:55:52.060Z,101334.25
2022-08-05T05:58:30.174Z,101338.03
2022-08-05T06:01:02.473Z,101336.84
2022-08-05T06:03:53.845Z,101342.34
2022-08-05T06:06:28.047Z,101350.19
2022-08-05T06:08:59.680Z,101354.38
2022-08-05T06:11:26.386Z,101363.50
2022-08-05T06:13:55.794Z,101356.41
2022-08-05T06:16:29.067Z,101355.06
2022-08-05T06:19:00.983Z,101356.63
2022-08-05T06:21:35.715Z,101367.72
2022-08-05T06:24:04.000Z,101360.47
2022-08-05T06:26:31.870Z,101367.66
2022-08-05T06:29:03.255Z,101367.78
2022-08-05T06:31:33.580Z,101371.34
2022-08-05T06:34:06.086Z,101365.25
2022-08-05T06:36:37.419Z,101369.66
2022-08-05T06:39:19.868Z,101368.66
2022-08-05T06:41:49.537Z,101363.69
2022-08-05T06:44:16.136Z,101370.94
2022-08-05T06:46:44.326Z,101368.44
2022-08-05T06:49:11.008Z,101373.03
2022-08-05T06:51:40.862Z,101372.03
2022-08-05T06:54:08.023Z,101373.66
2022-08-05T06:56:38.424Z,101377.72
2022-08-05T06:59:08.495Z,101377.53
2022-08-05T07:01:36.682Z,101368.56
2022-08-05T07:04:03.499Z,101369.81
2022-08-05T07:06:30.391Z,101376.53
2022-08-05T07:08:59.101Z,101374.13
2022-08-05T07:11:25.810Z,101372.63
2022-08-05T07:14:15.504Z,101378.53
2022-08-05T07:18:08.484Z,101377.84
2022-08-05T07:20:16.865Z,101385.84
2022-08-05T07:22:28.771Z,101389.50
2022-08-05T07:25:22.480Z,101388.69
2022-08-05T07:27:57.543Z,101385.78
2022-08-05T07:30:31.697Z,101388.34
2022-08-05T07:32:59.876Z,101386.16
2022-08-05T07:36:02.939Z,101382.75
2022-08-05T07:38:32.306Z,101389.63
2022-08-05T07:41:04.505Z,101385.81
2022-08-05T07:43:47.002Z,101381.31
2022-08-05T07:46:24.348Z,101396.25
2022-08-05T07:49:01.517Z,101393.03
2022-08-05T07:51:40.353Z,101393.94
2022-08-05T07:54:08.469Z,101388.03
2022-08-05T07:57:00.323Z,101380.97
2022-08-05T07:59:38.981Z,101385.97
2022-08-05T08:02:16.286Z,101395.34
2022-08-05T08:04:45.391Z,101392.94
2022-08-05T08:07:12.561Z,101403.38
2022-08-05T08:09:39.119Z,101403.09
2022-08-05T08:12:16.489Z,101404.72
2022-08-05T08:14:52.635Z,101403.03
2022-08-05T08:17:19.221Z,101395.59
2022-08-05T08:20:22.605Z,101407.97
2022-08-05T08:22:35.376Z,101405.06
2022-08-05T08:25:03.230Z,101405.16
2022-08-05T08:27:35.656Z,101400.47
2022-08-05T08:30:29.394Z,101407.94
2022-08-05T08:32:58.493Z,101412.63
2022-08-05T08:35:35.052Z,101411.66
2022-08-05T08:38:07.866Z,101414.47
2022-08-05T08:40:35.339Z,101417.03
2022-08-05T08:45:16.226Z,101416.13
2022-08-05T08:45:50.831Z,101421.03
2022-08-05T08:48:41.427Z,101419.97
2022-08-05T08:51:22.350Z,101427.22
2022-08-05T08:53:53.466Z,101421.91
2022-08-05T08:56:22.190Z,101427.69
2022-08-05T08:58:49.551Z,101428.84
2022-08-05T09:01:18.812Z,101431.19
2022-08-05T09:03:55.071Z,101430.84
2022-08-05T09:06:24.196Z,101434.38
2022-08-05T09:08:55.114Z,101428.06
2022-08-05T09:11:51.005Z,101421.50
2022-08-05T09:14:56.618Z,101422.81
2022-08-05T09:16:55.821Z,101428.19
2022-08-05T09:19:24.739Z,101425.47
2022-08-05T09:22:23.427Z,101422.97
2022-08-05T09:24:42.643Z,101427.09
2022-08-05T09:27:09.755Z,101422.69
2022-08-05T09:29:47.908Z,101432.78
2022-08-05T09:32:45.715Z,101439.78
2022-08-05T09:35:09.188Z,101429.13
2022-08-05T09:38:17.541Z,101428.63
2022-08-05T09:40:32.861Z,101431.69
2022-08-05T09:43:00.249Z,101427.72
2022-08-05T09:46:07.237Z,101423.81
2022-08-05T09:48:27.250Z,101428.34
2022-08-05T09:50:59.559Z,101425.72
2022-08-05T09:53:53.109Z,101424.97
2022-08-05T09:56:14.104Z,101418.69
2022-08-05T09:58:41.979Z,101428.59
2022-08-05T10:01:15.405Z,101429.41
2022-08-05T10:04:16.118Z,101426.13
2022-08-05T10:06:54.978Z,101432.31
2022-08-05T10:09:28.071Z,101435.41
2022-08-05T10:12:30.169Z,101438.78
2022-08-05T10:14:54.552Z,101431.44
2022-08-05T10:17:37.722Z,101428.53
2022-08-05T10:20:09.960Z,101437.69
2022-08-05T10:22:48.556Z,101439.72
2022-08-05T10:25:15.706Z,101440.59
2022-08-05T10:28:13.636Z,101434.41
2022-08-05T10:31:20.945Z,101435.47
2022-08-05T10:33:15.846Z,101426.66
2022-08-05T10:35:44.212Z,101433.69
2022-08-05T10:38:12.655Z,101432.94
2022-08-05T10:40:45.021Z,101443.00
2022-08-05T10:43:21.751Z,101453.22
2022-08-05T10:46:06.670Z,101452.19
2022-08-05T10:48:38.456Z,101444.56
2022-08-05T10:51:22.101Z,101437.94
2022-08-05T10:53:58.571Z,101439.00
2022-08-05T10:56:36.643Z,101440.28
2022-08-05T10:59:07.086Z,101435.66
2022-08-05T11:01:54.674Z,101431.97
2022-08-05T11:04:30.947Z,101448.59
2022-08-05T11:07:01.336Z,101442.31
2022-08-05T11:09:45.418Z,101450.03
2022-08-05T11:12:32.109Z,101450.44
2022-08-05T11:15:19.695Z,101452.34
2022-08-05T11:17:57.130Z,101461.75
2022-08-05T11:20:43.931Z,101464.41
2022-08-05T11:23:33.030Z,101464.84
2022-08-05T11:26:32.114Z,101471.97
2022-08-05T11:29:11.761Z,101480.44
2022-08-05T11:31:57.608Z,101477.56
2022-08-05T11:34:39.286Z,101486.31
2022-08-05T11:38:30.912Z,101479.75
2022-08-05T11:40:00.305Z,101479.31
2022-08-05T11:42:31.857Z,101484.34
2022-08-05T11:45:03.302Z,101481.25
2022-08-05T11:47:48.808Z,101481.06
2022-08-05T11:50:16.772Z,101484.81
2022-08-05T11:52:46.046Z,101485.94
2022-08-05T11:55:15.661Z,101486.25
2022-08-05T11:58:10.061Z,101489.16
2022-08-05T12:00:32.271Z,101496.84
2022-08-05T12:03:24.117Z,101495.84
2022-08-05T12:06:05.996Z,101503.41
2022-08-05T12:08:51.254Z,101502.53
2022-08-05T12:11:22.603Z,101500.44
2022-08-05T12:13:55.287Z,101501.00
2022-08-05T12:16:27.249Z,101508.81
2022-08-05T12:18:55.957Z,101507.03
2022-08-05T12:21:32.638Z,101498.72
2022-08-05T12:24:07.591Z,101502.06
2022-08-05T12:27:00.582Z,101506.50
2022-08-05T12:29:37.994Z,101500.97
2022-08-05T12:32:07.511Z,101499.94
2022-08-05T12:34:37.373Z,101510.13
2022-08-05T12:37:29.732Z,101517.88
2022-08-05T12:40:03.364Z,101517.91
2022-08-05T12:42:36.905Z,101523.44
2022-08-05T12:45:08.796Z,101521.72
2022-08-05T12:47:37.198Z,101513.97
2022-08-05T12:50:17.734Z,101521.94
2022-08-05T12:52:56.659Z,101516.00
2022-08-05T12:55:28.380Z,101520.75
2022-08-05T12:58:38.416Z,101520.75
2022-08-05T13:02:01.962Z,101513.00
2022-08-05T13:03:42.233Z,101527.75
2022-08-05T13:06:13.667Z,101533.13
2022-08-05T13:08:41.102Z,101531.88
2022-08-05T13:11:18.195Z,101534.91
2022-08-05T13:14:09.879Z,101533.22
2022-08-05T13:16:45.414Z,101532.72
2022-08-05T13:19:12.967Z,101541.38
2022-08-05T13:21:48.016Z,101531.00
2022-08-05T13:24:27.500Z,101539.06
2022-08-05T13:40:16.616Z,101526.16
2022-08-05T13:42:41.323Z,101546.50
2022-08-05T13:45:08.729Z,101535.66
2022-08-05T13:48:09.961Z,101495.63
2022-08-05T13:50:24.364Z,101512.63
2022-08-05T13:52:51.127Z,101541.84
2022-08-05T13:55:41.762Z,101544.69
2022-08-05T13:58:05.604Z,101564.56
2022-08-05T14:00:32.336Z,101583.50
2022-08-05T14:03:01.462Z,101547.03
2022-08-05T14:05:47.919Z,101537.34
2022-08-05T14:08:21.325Z,101541.09
2022-08-05T14:11:03.171Z,101577.50
2022-08-05T14:13:41.332Z,101538.50
2022-08-05T14:16:11.082Z,101549.63
2022-08-05T14:18:38.143Z,101526.00
2022-08-05T14:22:08.525Z,101581.44
2022-08-05T14:23:51.723Z,101587.91
2022-08-05T14:26:35.699Z,101525.56
2022-08-05T14:29:06.197Z,101566.75
2022-08-05T14:32:02.999Z,101579.50
2022-08-05T14:34:30.131Z,101553.41
2022-08-05T14:37:02.539Z,101545.38
2022-08-05T14:39:29.540Z,101555.03
2022-08-05T14:42:19.085Z,101560.81
2022-08-05T14:44:43.105Z,101569.63
2022-08-05T14:47:09.855Z,101562.13
2022-08-05T14:49:59.112Z,101578.47
2022-08-05T14:52:50.554Z,101571.63
2022-08-05T14:55:15.347Z,101520.50
2022-08-05T14:57:54.275Z,101559.31
2022-08-05T15:00:27.757Z,101591.44
2022-08-05T15:02:55.438Z,101557.31
2022-08-05T15:05:22.313Z,101527.63
2022-08-05T15:08:11.295Z,101564.41
2022-08-05T15:10:43.514Z,101570.88
2022-08-05T15:13:13.053Z,101571.44
2022-08-05T15:15:55.842Z,101594.66
2022-08-05T15:18:23.478Z,101582.91
2022-08-05T15:20:50.336Z,101578.97
2022-08-05T15:23:18.317Z,101545.91
2022-08-05T15:25:53.789Z,101545.28
2022-08-05T15:28:27.781Z,101557.41
2022-08-05T15:30:55.000Z,101580.19
2022-08-05T15:33:53.707Z,101620.63
2022-08-05T15:36:17.812Z,101645.84
2022-08-05T15:39:07.623Z,101603.91
2022-08-05T15:41:58.353Z,101605.69
2022-08-05T15:44:27.940Z,101623.28
2022-08-05T15:46:56.941Z,101620.41
2022-08-05T15:49:53.781Z,101607.66
2022-08-05T15:52:16.401Z,101613.63
2022-08-05T15:54:44.017Z,101629.91
2022-08-05T15:57:10.982Z,101604.19
2022-08-05T15:59:39.247Z,101600.78
2022-08-05T16:02:09.526Z,101606.13
2022-08-05T16:04:42.427Z,101636.22
2022-08-05T16:07:10.551Z,101623.88
2022-08-05T16:09:37.788Z,101625.81
2022-08-05T16:12:09.529Z,101611.91
2022-08-05T16:14:38.249Z,101622.28
2022-08-05T16:17:05.134Z,101629.50
2022-08-05T16:20:04.843Z,101615.56
2022-08-05T16:22:27.598Z,101598.81
2022-08-05T16:25:00.562Z,101596.66
2022-08-05T16:27:47.127Z,101622.63
2022-08-05T16:30:25.974Z,101599.00
2022-08-05T16:32:53.655Z,101623.13
2022-08-05T16:35:27.711Z,101628.69
2022-08-05T16:38:03.582Z,101625.56
2022-08-05T16:40:42.642Z,101630.78
2022-08-05T16:43:16.592Z,101629.06
2022-08-05T16:46:05.011Z,101624.97
2022-08-05T16:48:35.086Z,101626.22
2022-08-05T16:51:02.288Z,101665.41
2022-08-05T16:54:02.220Z,101669.63
2022-08-05T16:56:18.903Z,101602.66
2022-08-05T16:58:46.526Z,101661.53
2022-08-05T17:01:13.359Z,101631.47
2022-08-05T17:03:40.541Z,101623.34
2022-08-05T17:06:07.838Z,101644.13
2022-08-05T17:08:51.964Z,101641.63
2022-08-05T17:11:19.656Z,101635.84
2022-08-05T17:13:50.426Z,101686.00
2022-08-05T17:16:32.480Z,101635.84
2022-08-05T17:19:01.012Z,101673.88
2022-08-05T17:21:35.490Z,101642.50
2022-08-05T17:24:19.778Z,101688.50
2022-08-05T17:26:51.310Z,101657.97
2022-08-05T17:29:22.729Z,101653.16
2022-08-05T17:31:59.779Z,101623.88
2022-08-05T17:34:30.028Z,101669.63
2022-08-05T17:37:00.313Z,101708.50
2022-08-05T17:39:34.656Z,101639.94
2022-08-05T17:42:28.611Z,101718.81
2022-08-05T17:44:51.118Z,101693.09
2022-08-05T17:47:23.077Z,101707.06
2022-08-05T17:49:59.780Z,101709.44
2022-08-05T17:52:34.130Z,101651.97
2022-08-05T17:55:03.083Z,101699.34
2022-08-05T17:57:30.274Z,101675.31
2022-08-05T18:00:03.483Z,101699.88
2022-08-05T18:02:35.740Z,101693.50
2022-08-05T18:05:07.604Z,101725.22
2022-08-05T18:07:41.796Z,101715.03
2022-08-05T18:10:20.331Z,101709.50
2022-08-05T18:12:47.962Z,101726.94
2022-08-05T18:15:14.804Z,101704.75
2022-08-05T18:18:01.034Z,101720.31
2022-08-05T18:20:29.246Z,101697.78
2022-08-05T18:23:00.654Z,101709.22
2022-08-05T18:25:39.118Z,101704.38
2022-08-05T18:28:06.729Z,101693.88
2022-08-05T18:30:34.323Z,101701.75
2022-08-05T18:33:02.155Z,101748.16
2022-08-05T18:36:00.043Z,101729.38
2022-08-05T18:38:19.427Z,101744.25
2022-08-05T18:41:53.730Z,101739.88
2022-08-05T18:43:43.139Z,101751.69
2022-08-05T18:46:19.947Z,101723.50
2022-08-05T18:48:52.620Z,101741.31
2022-08-05T18:52:05.714Z,101752.06
2022-08-05T18:54:30.916Z,101756.72
2022-08-05T18:57:01.604Z,101693.56
2022-08-05T18:59:42.666Z,101753.50
2022-08-05T19:02:26.428Z,101741.00
2022-08-05T19:05:01.652Z,101769.63
2022-08-05T19:07:45.191Z,101750.94
2022-08-05T19:10:12.277Z,101775.78
2022-08-05T19:12:39.066Z,101758.66
2022-08-05T19:15:06.530Z,101778.66
2022-08-05T19:18:08.838Z,101787.56
2022-08-05T19:20:37.109Z,101781.94
2022-08-05T19:23:08.730Z,101788.25
2022-08-05T19:26:01.625Z,101774.75
2022-08-05T19:28:29.374Z,101799.34
2022-08-05T19:30:56.124Z,101807.38
2022-08-05T19:33:35.185Z,101793.28
2022-08-05T19:36:06.198Z,101797.50
2022-08-05T19:38:37.418Z,101822.03
2022-08-05T19:41:07.353Z,101823.06
2022-08-05T19:44:05.476Z,101808.84
2022-08-05T19:46:30.433Z,101779.00
2022-08-05T19:49:05.299Z,101795.25
2022-08-05T19:52:04.615Z,101825.22
2022-08-05T19:54:28.448Z,101824.31
2022-08-05T19:57:06.255Z,101840.75
2022-08-05T19:59:56.195Z,101840.75
2022-08-05T20:02:23.012Z,101840.22
2022-08-05T20:04:50.064Z,101830.44
2022-08-05T20:07:47.835Z,101853.22
2022-08-05T20:10:11.724Z,101840.94
2022-08-05T20:12:47.625Z,101840.94
2022-08-05T20:15:48.468Z,101862.00
2022-08-05T20:18:10.042Z,101842.94
2022-08-05T20:20:56.623Z,101860.47
2022-08-05T20:23:39.928Z,101869.69
2022-08-05T20:26:16.485Z,101852.63
2022-08-05T20:28:45.799Z,101857.91
2022-08-05T20:31:13.786Z,101844.69
2022-08-05T20:33:44.557Z,101844.56
2022-08-05T20:36:11.791Z,101873.09
2022-08-05T20:38:54.166Z,101879.88
2022-08-05T20:41:26.980Z,101873.28
2022-08-05T20:44:19.085Z,101872.47
2022-08-05T20:47:00.862Z,101862.28
2022-08-05T20:49:27.778Z,101853.75
2022-08-05T20:51:57.345Z,101844.19
2022-08-05T20:54:26.151Z,101842.28
2022-08-05T20:57:14.456Z,101849.06
2022-08-05T20:59:46.240Z,101867.50
2022-08-05T21:02:28.347Z,101886.31
2022-08-05T21:04:55.420Z,101842.59
2022-08-05T21:07:24.127Z,101866.50
2022-08-05T21:09:53.802Z,101870.06
2022-08-05T21:12:21.739Z,101887.63
2022-08-05T21:14:53.965Z,101855.13
2022-08-05T21:17:22.102Z,101894.16
2022-08-05T21:19:50.428Z,101889.94
2022-08-05T21:22:18.630Z,101895.72
2022-08-05T21:24:51.931Z,101878.72
2022-08-05T21:27:25.097Z,101889.28
2022-08-05T21:29:58.286Z,101899.63
2022-08-05T21:32:29.286Z,101905.66
2022-08-05T21:35:17.541Z,101902.06
2022-08-05T21:37:52.774Z,101903.09
2022-08-05T21:40:22.448Z,101911.63
2022-08-05T21:42:51.934Z,101909.16
2022-08-05T21:45:24.646Z,101901.88
2022-08-05T21:48:08.163Z,101901.19
2022-08-05T21:50:36.768Z,101907.69
2022-08-05T21:53:16.240Z,101904.56
2022-08-05T21:56:05.543Z,101890.00
2022-08-05T21:58:32.200Z,101900.19
2022-08-05T22:00:59.787Z,101878.50
2022-08-05T22:03:48.238Z,101890.25
2022-08-05T22:06:15.891Z,101895.13
2022-08-05T22:08:51.649Z,101894.84
2022-08-05T22:11:19.399Z,101877.81
2022-08-05T22:14:33.775Z,101890.63
2022-08-05T22:16:51.814Z,101898.59
2022-08-05T22:20:01.157Z,101877.22
2022-08-05T22:22:12.904Z,101846.38
2022-08-05T22:25:01.577Z,101875.59
2022-08-05T22:28:08.942Z,101901.97
2022-08-05T22:30:34.938Z,101900.34
2022-08-05T22:33:03.381Z,101888.19
2022-08-05T22:35:38.611Z,101896.69
2022-08-05T22:38:15.364Z,101909.25
2022-08-05T22:40:42.237Z,101884.94
2022-08-05T22:43:36.567Z,101928.72
2022-08-05T22:46:09.060Z,101907.25
2022-08-05T22:48:40.144Z,101906.78
2022-08-05T22:51:07.866Z,101917.50
2022-08-05T22:53:35.762Z,101893.25
2022-08-05T22:56:03.020Z,101939.81
2022-08-05T22:58:29.725Z,101913.19
2022-08-05T23:00:59.674Z,101932.78
2022-08-05T23:03:59.085Z,101925.88
2022-08-05T23:06:13.059Z,101875.22
2022-08-05T23:08:40.228Z,101885.88
2022-08-05T23:11:08.634Z,101897.31
2022-08-05T23:13:35.507Z,101902.91
2022-08-05T23:16:03.959Z,101927.41
2022-08-05T23:18:30.652Z,101921.19
2022-08-05T23:20:59.100Z,101924.25
2022-08-05T23:23:26.162Z,101921.72
2022-08-05T23:25:57.038Z,101915.03
2022-08-05T23:28:29.167Z,101920.44
2022-08-05T23:30:56.026Z,101884.81
2022-08-05T23:34:05.140Z,101926.50
2022-08-05T23:36:28.560Z,101941.13
2022-08-05T23:39:06.577Z,101959.25
2022-08-05T23:41:34.382Z,101948.16
2022-08-05T23:44:08.879Z,101938.03
2022-08-05T23:46:37.439Z,101949.44
2022-08-05T23:49:16.171Z,101938.34
2022-08-05T23:52:02.839Z,101936.28
2022-08-05T23:54:38.120Z,101945.97
2022-08-05T23:57:06.261Z,101933.94
2022-08-05T23:59:37.574Z,101957.75
